Ellen Mcallister — WDG3673 — position and weather

sailwx.info

Track history (hours):
 
Tides and Currents Weather Stations Pressure Air Temp Water Temp Dewpoint Dewpoint Depression Visibility Wind Speed Wind Dir Waves Ship Positions

Ellen Mcallister

Owner: McAllister Towing & Transportation Inc., Staten Island, NY. More information available from US FCC via Universal Licensing System and Coast Guard Vessel Documentation Center.

Last reported at 2017-May-28 22:03 UTC. Time now 2017-May-29 03:51 UTC.
Position N 40°40' W 074°08'.

Length 35 m; draft 5 m.

Type: Tug. MMSI: 366836590.

Date/timePositionNaut miles runAvg speedWind from/ knotsBaromVisibWave heightAir tempDewpointWater temp
2017-May-28 22:03N 40°40' W 074°08'0 0.1
2017-May-28 21:59N 40°40' W 074°08'0 0.9
2017-May-28 21:29N 40°40' W 074°09'3 3.7
2017-May-28 20:41N 40°39' W 074°05'1 6.0
2017-May-28 20:27N 40°38' W 074°03'0 0.4
2017-May-28 20:01N 40°38' W 074°03'2 0.3
2017-May-28 15:00N 40°39' W 074°05'2 2.7
2017-May-28 14:27N 40°38' W 074°03'1 0.1
2017-May-28 05:01N 40°39' W 074°04'010.2
2017-May-28 04:59N 40°39' W 074°04'0 1.0
2017-May-28 04:30N 40°39' W 074°03'3 7.0
2017-May-28 04:00N 40°42' W 074°00'2 3.4
2017-May-28 03:31N 40°42' W 073°58'1 1.9
2017-May-28 03:00N 40°42' W 073°60'510.1
2017-May-28 02:30N 40°39' W 074°05'3 0.6
2017-May-27 21:01N 40°39' W 074°09'3 2.1
2017-May-27 19:28N 40°42' W 074°09'0 0.0
2017-May-27 18:28N 40°42' W 074°09'0 0.0
2017-May-27 17:44N 40°42' W 074°09'1 0.1
2017-May-27 09:55N 40°41' W 074°08'3 5.1
2017-May-27 09:16N 40°39' W 074°04'1 2.8
2017-May-27 09:00N 40°40' W 074°04'0 0.8
2017-May-27 08:31N 40°40' W 074°04'1 0.0
2017-May-26 18:47N 40°39' W 074°04'1 2.4
2017-May-26 18:30N 40°40' W 074°04'0 0.0
2017-May-26 18:00N 40°40' W 074°04'0 0.0
2017-May-26 17:30N 40°40' W 074°04'0 0.0
2017-May-26 16:59N 40°40' W 074°04'0 0.4
2017-May-26 16:29N 40°40' W 074°04'0 0.1
2017-May-26 16:00N 40°40' W 074°04'1 1.3
2017-May-26 15:30N 40°39' W 074°04'1 1.1
2017-May-26 14:59N 40°40' W 074°04'0 0.9
2017-May-26 14:30N 40°40' W 074°04'1 0.9
2017-May-26 13:30N 40°39' W 074°04'4 0.9
2017-May-26 09:39N 40°39' W 074°09'0 1.1
2017-May-26 09:24N 40°40' W 074°09'0 0.2
2017-May-26 08:54N 40°40' W 074°09'3 0.3
2017-May-25 22:50N 40°39' W 074°05'1 3.1
2017-May-25 22:30N 40°40' W 074°04'0 0.4
2017-May-25 22:00N 40°40' W 074°04'3 2.3
2017-May-25 20:34N 40°40' W 074°09'0 0.3
2017-May-25 20:30N 40°40' W 074°09'1 0.9
2017-May-25 18:52N 40°41' W 074°08'3 1.1
2017-May-25 16:20N 40°39' W 074°05'1 3.7
2017-May-25 15:59N 40°40' W 074°04'1 2.0
2017-May-25 15:30N 40°40' W 074°05'1 1.6
2017-May-25 15:00N 40°41' W 074°04'0 0.5
2017-May-25 14:00N 40°40' W 074°03'2 4.1
2017-May-25 13:29N 40°38' W 074°03'4 1.1
2017-May-25 09:29N 40°39' W 074°09'1 2.5
2017-May-25 08:58N 40°40' W 074°08'0 0.1
2017-May-25 08:26N 40°40' W 074°09'0 0.1
2017-May-25 07:58N 40°40' W 074°09'3 0.6
2017-May-25 02:35N 40°40' W 074°04'1 8.6
2017-May-25 02:30N 40°40' W 074°03'3 5.3
2017-May-25 02:00N 40°41' W 074°00'1 1.0
2017-May-25 01:30N 40°41' W 074°01'3 5.5
2017-May-25 01:00N 40°39' W 074°03'4 1.3
2017-May-24 21:47N 40°40' W 074°09'4 2.3
2017-May-24 20:06N 40°39' W 074°04'113.2
2017-May-24 20:00N 40°40' W 074°02'1 2.8
2017-May-24 19:30N 40°41' W 074°01'0 0.3
2017-May-24 18:59N 40°41' W 074°01'2 4.2
2017-May-24 18:30N 40°39' W 074°03'1 1.1
2017-May-24 18:00N 40°40' W 074°03'2 4.1
2017-May-24 17:30N 40°41' W 074°00'0 0.0
2017-May-24 17:00N 40°41' W 074°00'0 0.0
2017-May-24 16:30N 40°41' W 074°00'0 0.0
2017-May-24 16:00N 40°41' W 074°00'0 0.0
2017-May-24 15:30N 40°41' W 074°00'0 0.7
2017-May-24 15:00N 40°41' W 074°01'2 3.1
2017-May-24 14:30N 40°40' W 074°01'3 0.9
2017-May-24 11:33N 40°38' W 074°04'1 7.7
2017-May-24 11:28N 40°39' W 074°04'1 0.1
2017-May-24 07:54N 40°39' W 074°04'1 1.2
2017-May-24 07:19N 40°38' W 074°04'4 0.4
2017-May-23 22:10N 40°40' W 074°08'0 0.0
2017-May-23 21:57N 40°40' W 074°08'0 0.0
2017-May-23 21:29N 40°40' W 074°08'1 0.1
2017-May-23 09:42N 40°40' W 074°09'0 0.1
2017-May-23 09:30N 40°40' W 074°09'1 0.1
2017-May-22 22:02N 40°40' W 074°08'0 0.2
2017-May-22 21:56N 40°40' W 074°08'3 3.0
2017-May-22 20:48N 40°39' W 074°04'2 5.6
2017-May-22 20:30N 40°38' W 074°03'2 3.6
2017-May-22 20:00N 40°39' W 074°05'0 0.2
2017-May-22 17:42N 40°39' W 074°04'0 1.9
2017-May-22 17:28N 40°38' W 074°04'1 0.2
2017-May-22 09:15N 40°39' W 074°05'3 5.6
2017-May-22 08:48N 40°40' W 074°08'1 1.8
2017-May-22 08:11N 40°41' W 074°09'4 0.5
2017-May-21 23:54N 40°39' W 074°04'1 3.7
2017-May-21 23:30N 40°38' W 074°04'5 0.5
2017-May-21 14:45N 40°39' W 074°10'4 5.7
2017-May-21 13:57N 40°38' W 074°04'1 0.3
2017-May-21 09:49N 40°39' W 074°05'1 2.8
2017-May-21 09:27N 40°40' W 074°04'1 1.3
2017-May-21 09:00N 40°40' W 074°04'3 0.7
2017-May-21 04:10N 40°40' W 074°09'0 0.4
2017-May-21 04:00N 40°40' W 074°09'0 0.3
2017-May-21 02:25N 40°39' W 074°09'3 1.8
2017-May-21 00:30N 40°39' W 074°04'3 0.4
2017-May-20 15:55N 40°40' W 074°09'0 0.2
2017-May-20 15:23N 40°40' W 074°09'3 3.9
2017-May-20 14:38N 40°39' W 074°05'1 7.8
2017-May-20 14:30N 40°39' W 074°04'4 0.9
2017-May-20 10:13N 40°40' W 074°08'0 1.4
2017-May-20 10:00N 40°41' W 074°09'0 0.1
2017-May-20 05:51N 40°40' W 074°08'0 0.0
2017-May-20 05:27N 40°40' W 074°08'0 0.0
2017-May-20 04:53N 40°40' W 074°08'0 0.0
2017-May-20 04:30N 40°40' W 074°08'0 0.0
2017-May-20 03:59N 40°40' W 074°08'0 0.0
2017-May-19 22:39N 40°40' W 074°08'0 0.0
2017-May-19 22:19N 40°40' W 074°08'0 0.0
2017-May-19 22:00N 40°40' W 074°08'3 3.0
2017-May-19 21:03N 40°39' W 074°05'0 8.6
2017-May-19 21:00N 40°39' W 074°04'3 0.1
2017-May-18 22:16N 40°40' W 074°08'  
Track history (hours):
 
Tides and Currents Weather Stations Pressure Air Temp Water Temp Dewpoint Dewpoint Depression Visibility Wind Speed Wind Dir Waves Ship Positions

Ellen Mcallister

Owner: McAllister Towing & Transportation Inc., Staten Island, NY. More information available from US FCC via Universal Licensing System and Coast Guard Vessel Documentation Center.

Last reported at 2017-May-28 22:03 UTC. Time now 2017-May-29 03:51 UTC.
Position N 40°40' W 074°08'.

Length 35 m; draft 5 m.

Type: Tug. MMSI: 366836590.

Date/timePositionNaut miles runAvg speedWind from/ knotsBaromVisibWave heightAir tempDewpointWater temp
2017-May-28 22:03N 40°40' W 074°08'0 0.1
2017-May-28 21:59N 40°40' W 074°08'0 0.9
2017-May-28 21:29N 40°40' W 074°09'3 3.7
2017-May-28 20:41N 40°39' W 074°05'1 6.0
2017-May-28 20:27N 40°38' W 074°03'0 0.4
2017-May-28 20:01N 40°38' W 074°03'2 0.3
2017-May-28 15:00N 40°39' W 074°05'2 2.7
2017-May-28 14:27N 40°38' W 074°03'1 0.1
2017-May-28 05:01N 40°39' W 074°04'010.2
2017-May-28 04:59N 40°39' W 074°04'0 1.0
2017-May-28 04:30N 40°39' W 074°03'3 7.0
2017-May-28 04:00N 40°42' W 074°00'2 3.4
2017-May-28 03:31N 40°42' W 073°58'1 1.9
2017-May-28 03:00N 40°42' W 073°60'510.1
2017-May-28 02:30N 40°39' W 074°05'3 0.6
2017-May-27 21:01N 40°39' W 074°09'3 2.1
2017-May-27 19:28N 40°42' W 074°09'0 0.0
2017-May-27 18:28N 40°42' W 074°09'0 0.0
2017-May-27 17:44N 40°42' W 074°09'1 0.1
2017-May-27 09:55N 40°41' W 074°08'3 5.1
2017-May-27 09:16N 40°39' W 074°04'1 2.8
2017-May-27 09:00N 40°40' W 074°04'0 0.8
2017-May-27 08:31N 40°40' W 074°04'1 0.0
2017-May-26 18:47N 40°39' W 074°04'1 2.4
2017-May-26 18:30N 40°40' W 074°04'0 0.0
2017-May-26 18:00N 40°40' W 074°04'0 0.0
2017-May-26 17:30N 40°40' W 074°04'0 0.0
2017-May-26 16:59N 40°40' W 074°04'0 0.4
2017-May-26 16:29N 40°40' W 074°04'0 0.1
2017-May-26 16:00N 40°40' W 074°04'1 1.3
2017-May-26 15:30N 40°39' W 074°04'1 1.1
2017-May-26 14:59N 40°40' W 074°04'0 0.9
2017-May-26 14:30N 40°40' W 074°04'1 0.9
2017-May-26 13:30N 40°39' W 074°04'4 0.9
2017-May-26 09:39N 40°39' W 074°09'0 1.1
2017-May-26 09:24N 40°40' W 074°09'0 0.2
2017-May-26 08:54N 40°40' W 074°09'3 0.3
2017-May-25 22:50N 40°39' W 074°05'1 3.1
2017-May-25 22:30N 40°40' W 074°04'0 0.4
2017-May-25 22:00N 40°40' W 074°04'3 2.3
2017-May-25 20:34N 40°40' W 074°09'0 0.3
2017-May-25 20:30N 40°40' W 074°09'1 0.9
2017-May-25 18:52N 40°41' W 074°08'3 1.1
2017-May-25 16:20N 40°39' W 074°05'1 3.7
2017-May-25 15:59N 40°40' W 074°04'1 2.0
2017-May-25 15:30N 40°40' W 074°05'1 1.6
2017-May-25 15:00N 40°41' W 074°04'0 0.5
2017-May-25 14:00N 40°40' W 074°03'2 4.1
2017-May-25 13:29N 40°38' W 074°03'4 1.1
2017-May-25 09:29N 40°39' W 074°09'1 2.5
2017-May-25 08:58N 40°40' W 074°08'0 0.1
2017-May-25 08:26N 40°40' W 074°09'0 0.1
2017-May-25 07:58N 40°40' W 074°09'3 0.6
2017-May-25 02:35N 40°40' W 074°04'1 8.6
2017-May-25 02:30N 40°40' W 074°03'3 5.3
2017-May-25 02:00N 40°41' W 074°00'1 1.0
2017-May-25 01:30N 40°41' W 074°01'3 5.5
2017-May-25 01:00N 40°39' W 074°03'4 1.3
2017-May-24 21:47N 40°40' W 074°09'4 2.3
2017-May-24 20:06N 40°39' W 074°04'113.2
2017-May-24 20:00N 40°40' W 074°02'1 2.8
2017-May-24 19:30N 40°41' W 074°01'0 0.3
2017-May-24 18:59N 40°41' W 074°01'2 4.2
2017-May-24 18:30N 40°39' W 074°03'1 1.1
2017-May-24 18:00N 40°40' W 074°03'2 4.1
2017-May-24 17:30N 40°41' W 074°00'0 0.0
2017-May-24 17:00N 40°41' W 074°00'0 0.0
2017-May-24 16:30N 40°41' W 074°00'0 0.0
2017-May-24 16:00N 40°41' W 074°00'0 0.0
2017-May-24 15:30N 40°41' W 074°00'0 0.7
2017-May-24 15:00N 40°41' W 074°01'2 3.1
2017-May-24 14:30N 40°40' W 074°01'3 0.9
2017-May-24 11:33N 40°38' W 074°04'1 7.7
2017-May-24 11:28N 40°39' W 074°04'1 0.1
2017-May-24 07:54N 40°39' W 074°04'1 1.2
2017-May-24 07:19N 40°38' W 074°04'4 0.4
2017-May-23 22:10N 40°40' W 074°08'0 0.0
2017-May-23 21:57N 40°40' W 074°08'0 0.0
2017-May-23 21:29N 40°40' W 074°08'1 0.1
2017-May-23 09:42N 40°40' W 074°09'0 0.1
2017-May-23 09:30N 40°40' W 074°09'1 0.1
2017-May-22 22:02N 40°40' W 074°08'0 0.2
2017-May-22 21:56N 40°40' W 074°08'3 3.0
2017-May-22 20:48N 40°39' W 074°04'2 5.6
2017-May-22 20:30N 40°38' W 074°03'2 3.6
2017-May-22 20:00N 40°39' W 074°05'0 0.2
2017-May-22 17:42N 40°39' W 074°04'0 1.9
2017-May-22 17:28N 40°38' W 074°04'1 0.2
2017-May-22 09:15N 40°39' W 074°05'3 5.6
2017-May-22 08:48N 40°40' W 074°08'1 1.8
2017-May-22 08:11N 40°41' W 074°09'4 0.5
2017-May-21 23:54N 40°39' W 074°04'1 3.7
2017-May-21 23:30N 40°38' W 074°04'5 0.5
2017-May-21 14:45N 40°39' W 074°10'4 5.7
2017-May-21 13:57N 40°38' W 074°04'1 0.3
2017-May-21 09:49N 40°39' W 074°05'1 2.8
2017-May-21 09:27N 40°40' W 074°04'1 1.3
2017-May-21 09:00N 40°40' W 074°04'3 0.7
2017-May-21 04:10N 40°40' W 074°09'0 0.4
2017-May-21 04:00N 40°40' W 074°09'0 0.3
2017-May-21 02:25N 40°39' W 074°09'3 1.8
2017-May-21 00:30N 40°39' W 074°04'3 0.4
2017-May-20 15:55N 40°40' W 074°09'0 0.2
2017-May-20 15:23N 40°40' W 074°09'3 3.9
2017-May-20 14:38N 40°39' W 074°05'1 7.8
2017-May-20 14:30N 40°39' W 074°04'4 0.9
2017-May-20 10:13N 40°40' W 074°08'0 1.4
2017-May-20 10:00N 40°41' W 074°09'0 0.1
2017-May-20 05:51N 40°40' W 074°08'0 0.0
2017-May-20 05:27N 40°40' W 074°08'0 0.0
2017-May-20 04:53N 40°40' W 074°08'0 0.0
2017-May-20 04:30N 40°40' W 074°08'0 0.0
2017-May-20 03:59N 40°40' W 074°08'0 0.0
2017-May-19 22:39N 40°40' W 074°08'0 0.0
2017-May-19 22:19N 40°40' W 074°08'0 0.0
2017-May-19 22:00N 40°40' W 074°08'3 3.0
2017-May-19 21:03N 40°39' W 074°05'0 8.6
2017-May-19 21:00N 40°39' W 074°04'3 0.1
2017-May-18 22:16N 40°40' W 074°08'  

Dump ship's entire track history